sensor_id;sensor_type;location;lat;lon;timestamp;P1;durP1;ratioP1;P2;durP2;ratioP2
59786;SDS011;45672;51.612;5.536;2024-01-11T00:01:45;32.95;;;17.55;;
59786;SDS011;45672;51.612;5.536;2024-01-11T00:04:11;34.45;;;17.50;;
59786;SDS011;45672;51.612;5.536;2024-01-11T00:06:43;31.63;;;16.00;;
59786;SDS011;45672;51.612;5.536;2024-01-11T00:11:34;27.08;;;15.38;;
59786;SDS011;45672;51.612;5.536;2024-01-11T00:14:00;34.40;;;16.98;;
59786;SDS011;45672;51.612;5.536;2024-01-11T00:16:25;33.80;;;16.52;;
59786;SDS011;45672;51.612;5.536;2024-01-11T00:18:51;31.02;;;16.45;;
59786;SDS011;45672;51.612;5.536;2024-01-11T00:21:16;33.08;;;17.10;;
59786;SDS011;45672;51.612;5.536;2024-01-11T00:23:45;33.33;;;16.83;;
59786;SDS011;45672;51.612;5.536;2024-01-11T00:26:13;37.65;;;18.10;;
59786;SDS011;45672;51.612;5.536;2024-01-11T00:28:38;34.15;;;16.60;;
59786;SDS011;45672;51.612;5.536;2024-01-11T00:31:03;36.65;;;16.48;;
59786;SDS011;45672;51.612;5.536;2024-01-11T00:33:29;30.48;;;15.95;;
59786;SDS011;45672;51.612;5.536;2024-01-11T00:35:55;31.00;;;16.33;;
59786;SDS011;45672;51.612;5.536;2024-01-11T00:38:20;33.90;;;17.13;;
59786;SDS011;45672;51.612;5.536;2024-01-11T00:40:46;34.38;;;16.08;;
59786;SDS011;45672;51.612;5.536;2024-01-11T00:43:11;31.65;;;17.48;;
59786;SDS011;45672;51.612;5.536;2024-01-11T00:45:37;30.33;;;16.48;;
59786;SDS011;45672;51.612;5.536;2024-01-11T00:48:02;33.03;;;17.00;;
59786;SDS011;45672;51.612;5.536;2024-01-11T00:50:28;35.65;;;18.08;;
59786;SDS011;45672;51.612;5.536;2024-01-11T00:52:53;34.95;;;17.42;;
59786;SDS011;45672;51.612;5.536;2024-01-11T00:55:19;34.72;;;17.00;;
59786;SDS011;45672;51.612;5.536;2024-01-11T00:57:44;34.33;;;17.05;;
59786;SDS011;45672;51.612;5.536;2024-01-11T01:00:10;33.28;;;15.88;;
59786;SDS011;45672;51.612;5.536;2024-01-11T01:02:38;30.63;;;16.80;;
59786;SDS011;45672;51.612;5.536;2024-01-11T01:05:04;33.83;;;16.98;;
59786;SDS011;45672;51.612;5.536;2024-01-11T01:07:29;33.03;;;16.30;;
59786;SDS011;45672;51.612;5.536;2024-01-11T01:09:55;35.80;;;17.00;;
59786;SDS011;45672;51.612;5.536;2024-01-11T01:12:20;33.72;;;16.98;;
59786;SDS011;45672;51.612;5.536;2024-01-11T01:14:45;36.25;;;17.15;;
59786;SDS011;45672;51.612;5.536;2024-01-11T01:17:10;35.70;;;17.02;;
59786;SDS011;45672;51.612;5.536;2024-01-11T01:19:36;32.25;;;16.42;;
59786;SDS011;45672;51.612;5.536;2024-01-11T01:22:01;33.65;;;16.50;;
59786;SDS011;45672;51.612;5.536;2024-01-11T01:24:27;31.27;;;15.90;;
59786;SDS011;45672;51.612;5.536;2024-01-11T01:26:52;36.15;;;17.30;;
59786;SDS011;45672;51.612;5.536;2024-01-11T01:29:17;35.08;;;17.08;;
59786;SDS011;45672;51.612;5.536;2024-01-11T01:31:43;30.88;;;16.52;;
59786;SDS011;45672;51.612;5.536;2024-01-11T01:34:08;34.95;;;17.15;;
59786;SDS011;45672;51.612;5.536;2024-01-11T01:36:33;34.13;;;17.35;;
59786;SDS011;45672;51.612;5.536;2024-01-11T01:38:59;36.50;;;18.45;;
59786;SDS011;45672;51.612;5.536;2024-01-11T01:41:24;37.38;;;19.42;;
59786;SDS011;45672;51.612;5.536;2024-01-11T01:43:49;33.38;;;17.25;;
59786;SDS011;45672;51.612;5.536;2024-01-11T01:46:15;37.95;;;18.23;;
59786;SDS011;45672;51.612;5.536;2024-01-11T01:48:46;41.58;;;18.40;;
59786;SDS011;45672;51.612;5.536;2024-01-11T01:51:12;31.25;;;17.23;;
59786;SDS011;45672;51.612;5.536;2024-01-11T01:53:37;32.08;;;16.17;;
59786;SDS011;45672;51.612;5.536;2024-01-11T01:56:03;33.22;;;16.63;;
59786;SDS011;45672;51.612;5.536;2024-01-11T01:58:30;34.65;;;17.17;;
59786;SDS011;45672;51.612;5.536;2024-01-11T02:00:56;34.17;;;17.50;;
59786;SDS011;45672;51.612;5.536;2024-01-11T02:03:22;34.97;;;17.70;;
59786;SDS011;45672;51.612;5.536;2024-01-11T02:05:51;37.45;;;18.45;;
59786;SDS011;45672;51.612;5.536;2024-01-11T02:08:17;34.47;;;18.02;;
59786;SDS011;45672;51.612;5.536;2024-01-11T02:10:46;35.80;;;18.75;;
59786;SDS011;45672;51.612;5.536;2024-01-11T02:13:11;32.33;;;17.80;;
59786;SDS011;45672;51.612;5.536;2024-01-11T02:15:38;36.72;;;17.45;;
59786;SDS011;45672;51.612;5.536;2024-01-11T02:18:03;33.38;;;17.40;;
59786;SDS011;45672;51.612;5.536;2024-01-11T02:20:29;42.20;;;20.17;;
59786;SDS011;45672;51.612;5.536;2024-01-11T02:22:56;39.65;;;20.00;;
59786;SDS011;45672;51.612;5.536;2024-01-11T02:25:26;36.78;;;17.95;;
59786;SDS011;45672;51.612;5.536;2024-01-11T02:27:51;32.35;;;16.80;;
59786;SDS011;45672;51.612;5.536;2024-01-11T02:30:17;34.88;;;18.00;;
59786;SDS011;45672;51.612;5.536;2024-01-11T02:32:43;34.53;;;16.73;;
59786;SDS011;45672;51.612;5.536;2024-01-11T02:35:13;40.25;;;17.92;;
59786;SDS011;45672;51.612;5.536;2024-01-11T02:37:40;35.65;;;18.55;;
59786;SDS011;45672;51.612;5.536;2024-01-11T02:40:08;39.63;;;18.65;;
59786;SDS011;45672;51.612;5.536;2024-01-11T02:42:35;38.03;;;18.52;;
59786;SDS011;45672;51.612;5.536;2024-01-11T02:45:01;34.03;;;17.27;;
59786;SDS011;45672;51.612;5.536;2024-01-11T02:47:28;37.35;;;18.38;;
59786;SDS011;45672;51.612;5.536;2024-01-11T02:49:53;40.15;;;19.60;;
59786;SDS011;45672;51.612;5.536;2024-01-11T02:52:19;44.72;;;18.35;;
59786;SDS011;45672;51.612;5.536;2024-01-11T02:54:44;37.75;;;18.70;;
59786;SDS011;45672;51.612;5.536;2024-01-11T02:57:09;40.92;;;17.95;;
59786;SDS011;45672;51.612;5.536;2024-01-11T02:59:35;32.25;;;16.92;;
59786;SDS011;45672;51.612;5.536;2024-01-11T03:02:01;36.58;;;17.60;;
59786;SDS011;45672;51.612;5.536;2024-01-11T03:04:26;36.50;;;17.73;;
59786;SDS011;45672;51.612;5.536;2024-01-11T03:06:52;33.42;;;15.68;;
59786;SDS011;45672;51.612;5.536;2024-01-11T03:09:17;42.90;;;18.13;;
59786;SDS011;45672;51.612;5.536;2024-01-11T03:11:42;35.30;;;18.10;;
59786;SDS011;45672;51.612;5.536;2024-01-11T03:14:08;41.75;;;20.27;;
59786;SDS011;45672;51.612;5.536;2024-01-11T03:16:33;34.95;;;17.45;;
59786;SDS011;45672;51.612;5.536;2024-01-11T03:18:59;38.53;;;17.13;;
59786;SDS011;45672;51.612;5.536;2024-01-11T03:21:24;37.60;;;18.05;;
59786;SDS011;45672;51.612;5.536;2024-01-11T03:23:50;35.33;;;17.77;;
59786;SDS011;45672;51.612;5.536;2024-01-11T03:26:16;38.10;;;16.88;;
59786;SDS011;45672;51.612;5.536;2024-01-11T03:28:42;35.42;;;15.95;;
59786;SDS011;45672;51.612;5.536;2024-01-11T03:31:10;32.97;;;17.17;;
59786;SDS011;45672;51.612;5.536;2024-01-11T03:33:36;31.13;;;15.55;;
59786;SDS011;45672;51.612;5.536;2024-01-11T03:36:10;39.42;;;17.08;;
59786;SDS011;45672;51.612;5.536;2024-01-11T03:38:37;33.22;;;16.35;;
59786;SDS011;45672;51.612;5.536;2024-01-11T03:41:06;38.55;;;18.35;;
59786;SDS011;45672;51.612;5.536;2024-01-11T03:43:33;33.78;;;16.80;;
59786;SDS011;45672;51.612;5.536;2024-01-11T03:45:58;35.53;;;17.63;;
59786;SDS011;45672;51.612;5.536;2024-01-11T03:48:23;33.80;;;16.08;;
59786;SDS011;45672;51.612;5.536;2024-01-11T03:50:49;32.67;;;16.55;;
59786;SDS011;45672;51.612;5.536;2024-01-11T03:53:14;30.50;;;16.75;;
59786;SDS011;45672;51.612;5.536;2024-01-11T03:55:39;34.22;;;16.38;;
59786;SDS011;45672;51.612;5.536;2024-01-11T03:58:04;32.50;;;15.40;;
59786;SDS011;45672;51.612;5.536;2024-01-11T04:00:30;27.67;;;14.38;;
59786;SDS011;45672;51.612;5.536;2024-01-11T04:02:55;31.73;;;15.68;;
59786;SDS011;45672;51.612;5.536;2024-01-11T04:05:20;25.83;;;14.38;;
59786;SDS011;45672;51.612;5.536;2024-01-11T04:07:46;35.53;;;17.50;;
59786;SDS011;45672;51.612;5.536;2024-01-11T04:10:11;33.15;;;16.75;;
59786;SDS011;45672;51.612;5.536;2024-01-11T04:12:37;35.42;;;16.65;;
59786;SDS011;45672;51.612;5.536;2024-01-11T04:15:02;32.05;;;16.83;;
59786;SDS011;45672;51.612;5.536;2024-01-11T04:17:28;32.95;;;17.20;;
59786;SDS011;45672;51.612;5.536;2024-01-11T04:19:54;31.70;;;16.25;;
59786;SDS011;45672;51.612;5.536;2024-01-11T04:22:19;35.38;;;17.00;;
59786;SDS011;45672;51.612;5.536;2024-01-11T04:24:44;37.03;;;17.75;;
59786;SDS011;45672;51.612;5.536;2024-01-11T04:27:10;32.15;;;15.32;;
59786;SDS011;45672;51.612;5.536;2024-01-11T04:29:35;35.53;;;16.23;;
59786;SDS011;45672;51.612;5.536;2024-01-11T04:32:00;34.13;;;17.33;;
59786;SDS011;45672;51.612;5.536;2024-01-11T04:34:26;35.70;;;17.08;;
59786;SDS011;45672;51.612;5.536;2024-01-11T04:36:52;30.63;;;16.10;;
59786;SDS011;45672;51.612;5.536;2024-01-11T04:39:18;29.60;;;15.27;;
59786;SDS011;45672;51.612;5.536;2024-01-11T04:41:43;36.40;;;16.70;;
59786;SDS011;45672;51.612;5.536;2024-01-11T04:44:08;34.35;;;17.85;;
59786;SDS011;45672;51.612;5.536;2024-01-11T04:46:35;33.33;;;16.20;;
59786;SDS011;45672;51.612;5.536;2024-01-11T04:49:00;30.25;;;16.33;;
59786;SDS011;45672;51.612;5.536;2024-01-11T04:51:25;32.33;;;16.05;;
59786;SDS011;45672;51.612;5.536;2024-01-11T04:53:51;32.67;;;16.45;;
59786;SDS011;45672;51.612;5.536;2024-01-11T04:56:16;32.15;;;16.63;;
59786;SDS011;45672;51.612;5.536;2024-01-11T04:58:43;33.65;;;16.67;;
59786;SDS011;45672;51.612;5.536;2024-01-11T05:01:13;31.45;;;15.73;;
59786;SDS011;45672;51.612;5.536;2024-01-11T05:03:39;38.17;;;17.70;;
59786;SDS011;45672;51.612;5.536;2024-01-11T05:06:04;30.25;;;16.20;;
59786;SDS011;45672;51.612;5.536;2024-01-11T05:08:30;32.35;;;16.70;;
59786;SDS011;45672;51.612;5.536;2024-01-11T05:10:55;32.72;;;15.73;;
59786;SDS011;45672;51.612;5.536;2024-01-11T05:13:21;38.63;;;15.07;;
59786;SDS011;45672;51.612;5.536;2024-01-11T05:15:46;31.77;;;15.05;;
59786;SDS011;45672;51.612;5.536;2024-01-11T05:18:12;36.17;;;16.17;;
59786;SDS011;45672;51.612;5.536;2024-01-11T05:20:38;29.30;;;15.73;;
59786;SDS011;45672;51.612;5.536;2024-01-11T05:23:04;33.05;;;16.92;;
59786;SDS011;45672;51.612;5.536;2024-01-11T05:25:29;30.42;;;14.48;;
59786;SDS011;45672;51.612;5.536;2024-01-11T05:27:58;33.45;;;14.77;;
59786;SDS011;45672;51.612;5.536;2024-01-11T05:30:27;26.75;;;14.77;;
59786;SDS011;45672;51.612;5.536;2024-01-11T05:32:53;33.70;;;15.15;;
59786;SDS011;45672;51.612;5.536;2024-01-11T05:35:18;28.98;;;15.30;;
59786;SDS011;45672;51.612;5.536;2024-01-11T05:37:44;37.60;;;15.13;;
59786;SDS011;45672;51.612;5.536;2024-01-11T05:40:09;33.67;;;16.33;;
59786;SDS011;45672;51.612;5.536;2024-01-11T05:42:34;29.23;;;15.73;;
59786;SDS011;45672;51.612;5.536;2024-01-11T05:45:00;30.02;;;15.02;;
59786;SDS011;45672;51.612;5.536;2024-01-11T05:47:25;31.65;;;14.45;;
59786;SDS011;45672;51.612;5.536;2024-01-11T05:49:50;28.52;;;13.13;;
59786;SDS011;45672;51.612;5.536;2024-01-11T05:52:16;30.52;;;16.25;;
59786;SDS011;45672;51.612;5.536;2024-01-11T05:54:41;33.40;;;16.10;;
59786;SDS011;45672;51.612;5.536;2024-01-11T05:57:06;28.23;;;15.23;;
59786;SDS011;45672;51.612;5.536;2024-01-11T05:59:32;31.52;;;14.93;;
59786;SDS011;45672;51.612;5.536;2024-01-11T06:01:58;30.92;;;15.10;;
59786;SDS011;45672;51.612;5.536;2024-01-11T06:04:25;24.98;;;13.88;;
59786;SDS011;45672;51.612;5.536;2024-01-11T06:06:51;34.25;;;16.80;;
59786;SDS011;45672;51.612;5.536;2024-01-11T06:09:16;25.55;;;13.63;;
59786;SDS011;45672;51.612;5.536;2024-01-11T06:11:42;37.60;;;16.25;;
59786;SDS011;45672;51.612;5.536;2024-01-11T06:14:07;32.15;;;14.88;;
59786;SDS011;45672;51.612;5.536;2024-01-11T06:16:33;28.83;;;14.63;;
59786;SDS011;45672;51.612;5.536;2024-01-11T06:18:58;25.58;;;13.73;;
59786;SDS011;45672;51.612;5.536;2024-01-11T06:21:23;30.83;;;15.05;;
59786;SDS011;45672;51.612;5.536;2024-01-11T06:23:49;30.50;;;14.93;;
59786;SDS011;45672;51.612;5.536;2024-01-11T06:26:14;28.13;;;14.85;;
59786;SDS011;45672;51.612;5.536;2024-01-11T06:28:39;27.83;;;14.88;;
59786;SDS011;45672;51.612;5.536;2024-01-11T06:31:05;27.30;;;14.60;;
59786;SDS011;45672;51.612;5.536;2024-01-11T06:33:30;30.52;;;14.75;;
59786;SDS011;45672;51.612;5.536;2024-01-11T06:35:57;31.90;;;14.82;;
59786;SDS011;45672;51.612;5.536;2024-01-11T06:38:22;28.20;;;14.70;;
59786;SDS011;45672;51.612;5.536;2024-01-11T06:40:48;29.70;;;15.35;;
59786;SDS011;45672;51.612;5.536;2024-01-11T06:43:14;31.73;;;16.45;;
59786;SDS011;45672;51.612;5.536;2024-01-11T06:45:40;27.50;;;14.57;;
59786;SDS011;45672;51.612;5.536;2024-01-11T06:48:07;30.15;;;14.88;;
59786;SDS011;45672;51.612;5.536;2024-01-11T06:50:33;26.58;;;16.00;;
59786;SDS011;45672;51.612;5.536;2024-01-11T06:52:58;32.35;;;15.65;;
59786;SDS011;45672;51.612;5.536;2024-01-11T06:55:24;27.08;;;14.15;;
59786;SDS011;45672;51.612;5.536;2024-01-11T06:57:50;26.35;;;13.73;;
59786;SDS011;45672;51.612;5.536;2024-01-11T07:00:15;30.90;;;15.48;;
59786;SDS011;45672;51.612;5.536;2024-01-11T07:02:40;24.83;;;14.32;;
59786;SDS011;45672;51.612;5.536;2024-01-11T07:05:06;25.75;;;14.52;;
59786;SDS011;45672;51.612;5.536;2024-01-11T07:07:32;28.52;;;14.48;;
59786;SDS011;45672;51.612;5.536;2024-01-11T07:09:58;29.33;;;14.70;;
59786;SDS011;45672;51.612;5.536;2024-01-11T07:12:23;27.45;;;13.88;;
59786;SDS011;45672;51.612;5.536;2024-01-11T07:14:48;27.65;;;13.70;;
59786;SDS011;45672;51.612;5.536;2024-01-11T07:17:14;25.58;;;15.00;;
59786;SDS011;45672;51.612;5.536;2024-01-11T07:19:39;27.60;;;14.77;;
59786;SDS011;45672;51.612;5.536;2024-01-11T07:22:04;30.02;;;15.43;;
59786;SDS011;45672;51.612;5.536;2024-01-11T07:24:30;26.52;;;12.20;;
59786;SDS011;45672;51.612;5.536;2024-01-11T07:27:02;29.92;;;16.30;;
59786;SDS011;45672;51.612;5.536;2024-01-11T07:29:29;29.40;;;15.40;;
59786;SDS011;45672;51.612;5.536;2024-01-11T07:31:54;29.38;;;15.95;;
59786;SDS011;45672;51.612;5.536;2024-01-11T07:34:19;25.02;;;13.63;;
59786;SDS011;45672;51.612;5.536;2024-01-11T07:36:45;26.50;;;14.40;;
59786;SDS011;45672;51.612;5.536;2024-01-11T07:39:10;31.38;;;16.40;;
59786;SDS011;45672;51.612;5.536;2024-01-11T07:41:36;31.63;;;16.55;;
59786;SDS011;45672;51.612;5.536;2024-01-11T07:44:01;26.35;;;14.90;;
59786;SDS011;45672;51.612;5.536;2024-01-11T07:46:26;32.50;;;15.90;;
59786;SDS011;45672;51.612;5.536;2024-01-11T07:48:52;28.55;;;16.40;;
59786;SDS011;45672;51.612;5.536;2024-01-11T07:51:17;30.38;;;15.48;;
59786;SDS011;45672;51.612;5.536;2024-01-11T07:53:45;37.90;;;16.52;;
59786;SDS011;45672;51.612;5.536;2024-01-11T07:56:11;24.73;;;13.70;;
59786;SDS011;45672;51.612;5.536;2024-01-11T07:58:36;24.90;;;14.20;;
59786;SDS011;45672;51.612;5.536;2024-01-11T08:01:03;30.80;;;15.60;;
59786;SDS011;45672;51.612;5.536;2024-01-11T08:03:29;28.27;;;15.40;;
59786;SDS011;45672;51.612;5.536;2024-01-11T08:05:54;30.85;;;15.75;;
59786;SDS011;45672;51.612;5.536;2024-01-11T08:08:20;31.58;;;15.43;;
59786;SDS011;45672;51.612;5.536;2024-01-11T08:10:47;27.88;;;15.93;;
59786;SDS011;45672;51.612;5.536;2024-01-11T08:13:15;25.02;;;14.63;;
59786;SDS011;45672;51.612;5.536;2024-01-11T08:15:42;37.67;;;17.58;;
59786;SDS011;45672;51.612;5.536;2024-01-11T08:18:08;31.58;;;15.43;;
59786;SDS011;45672;51.612;5.536;2024-01-11T08:20:33;27.17;;;14.73;;
59786;SDS011;45672;51.612;5.536;2024-01-11T08:22:59;27.13;;;15.95;;
59786;SDS011;45672;51.612;5.536;2024-01-11T08:25:24;28.20;;;15.35;;
59786;SDS011;45672;51.612;5.536;2024-01-11T08:27:50;24.83;;;14.50;;
59786;SDS011;45672;51.612;5.536;2024-01-11T08:30:15;38.00;;;17.83;;
59786;SDS011;45672;51.612;5.536;2024-01-11T08:32:41;32.30;;;16.95;;
59786;SDS011;45672;51.612;5.536;2024-01-11T08:35:07;28.65;;;16.15;;
59786;SDS011;45672;51.612;5.536;2024-01-11T08:37:35;30.08;;;16.15;;
59786;SDS011;45672;51.612;5.536;2024-01-11T08:40:00;32.58;;;17.98;;
59786;SDS011;45672;51.612;5.536;2024-01-11T08:42:26;27.90;;;14.88;;
59786;SDS011;45672;51.612;5.536;2024-01-11T08:44:51;29.70;;;16.13;;
59786;SDS011;45672;51.612;5.536;2024-01-11T08:47:17;28.17;;;14.52;;
59786;SDS011;45672;51.612;5.536;2024-01-11T08:49:43;31.85;;;17.48;;
59786;SDS011;45672;51.612;5.536;2024-01-11T08:52:08;32.13;;;16.90;;
59786;SDS011;45672;51.612;5.536;2024-01-11T08:54:34;37.00;;;15.85;;
59786;SDS011;45672;51.612;5.536;2024-01-11T08:57:00;34.83;;;17.10;;
59786;SDS011;45672;51.612;5.536;2024-01-11T08:59:26;35.17;;;17.15;;
59786;SDS011;45672;51.612;5.536;2024-01-11T09:01:52;30.73;;;16.60;;
59786;SDS011;45672;51.612;5.536;2024-01-11T09:04:18;34.10;;;18.38;;
59786;SDS011;45672;51.612;5.536;2024-01-11T09:06:44;42.90;;;18.00;;
59786;SDS011;45672;51.612;5.536;2024-01-11T09:09:12;31.67;;;16.30;;
59786;SDS011;45672;51.612;5.536;2024-01-11T09:11:39;38.88;;;18.45;;
59786;SDS011;45672;51.612;5.536;2024-01-11T09:14:06;30.65;;;16.70;;
59786;SDS011;45672;51.612;5.536;2024-01-11T09:16:31;33.97;;;17.77;;
59786;SDS011;45672;51.612;5.536;2024-01-11T09:18:57;32.08;;;15.77;;
59786;SDS011;45672;51.612;5.536;2024-01-11T09:21:25;35.72;;;18.65;;
59786;SDS011;45672;51.612;5.536;2024-01-11T09:23:51;31.13;;;18.17;;
59786;SDS011;45672;51.612;5.536;2024-01-11T09:26:16;30.60;;;15.57;;
59786;SDS011;45672;51.612;5.536;2024-01-11T09:28:41;35.58;;;18.80;;
59786;SDS011;45672;51.612;5.536;2024-01-11T09:31:07;34.95;;;16.95;;
59786;SDS011;45672;51.612;5.536;2024-01-11T09:33:32;37.13;;;18.98;;
59786;SDS011;45672;51.612;5.536;2024-01-11T09:35:57;33.13;;;17.88;;
59786;SDS011;45672;51.612;5.536;2024-01-11T09:38:23;35.55;;;19.08;;
59786;SDS011;45672;51.612;5.536;2024-01-11T09:40:49;35.35;;;18.92;;
59786;SDS011;45672;51.612;5.536;2024-01-11T09:43:25;34.97;;;18.73;;
59786;SDS011;45672;51.612;5.536;2024-01-11T09:45:51;33.90;;;17.88;;
59786;SDS011;45672;51.612;5.536;2024-01-11T09:48:18;38.90;;;19.60;;
59786;SDS011;45672;51.612;5.536;2024-01-11T09:50:45;37.63;;;18.95;;
59786;SDS011;45672;51.612;5.536;2024-01-11T09:53:12;36.13;;;17.92;;
59786;SDS011;45672;51.612;5.536;2024-01-11T09:55:39;33.35;;;15.32;;
59786;SDS011;45672;51.612;5.536;2024-01-11T09:58:04;38.30;;;19.10;;
59786;SDS011;45672;51.612;5.536;2024-01-11T10:00:31;32.75;;;18.45;;
59786;SDS011;45672;51.612;5.536;2024-01-11T10:02:57;39.63;;;20.55;;
59786;SDS011;45672;51.612;5.536;2024-01-11T10:05:23;32.70;;;18.83;;
59786;SDS011;45672;51.612;5.536;2024-01-11T10:07:48;32.47;;;18.73;;
59786;SDS011;45672;51.612;5.536;2024-01-11T10:10:14;36.25;;;20.33;;
59786;SDS011;45672;51.612;5.536;2024-01-11T10:12:40;35.15;;;19.13;;
59786;SDS011;45672;51.612;5.536;2024-01-11T10:15:06;33.08;;;18.80;;
59786;SDS011;45672;51.612;5.536;2024-01-11T10:17:34;39.92;;;20.52;;
59786;SDS011;45672;51.612;5.536;2024-01-11T10:20:00;35.45;;;19.38;;
59786;SDS011;45672;51.612;5.536;2024-01-11T10:22:26;37.80;;;21.30;;
59786;SDS011;45672;51.612;5.536;2024-01-11T10:25:04;34.85;;;19.35;;
59786;SDS011;45672;51.612;5.536;2024-01-11T10:27:35;29.50;;;15.50;;
59786;SDS011;45672;51.612;5.536;2024-01-11T10:30:01;36.80;;;19.52;;
59786;SDS011;45672;51.612;5.536;2024-01-11T10:32:28;35.22;;;18.98;;
59786;SDS011;45672;51.612;5.536;2024-01-11T10:34:53;38.58;;;20.45;;
59786;SDS011;45672;51.612;5.536;2024-01-11T10:37:19;40.15;;;20.80;;
59786;SDS011;45672;51.612;5.536;2024-01-11T10:39:46;40.72;;;20.75;;
59786;SDS011;45672;51.612;5.536;2024-01-11T10:42:15;32.65;;;16.00;;
59786;SDS011;45672;51.612;5.536;2024-01-11T10:44:49;33.85;;;17.90;;
59786;SDS011;45672;51.612;5.536;2024-01-11T10:47:20;42.20;;;21.30;;
59786;SDS011;45672;51.612;5.536;2024-01-11T10:49:47;37.78;;;20.88;;
59786;SDS011;45672;51.612;5.536;2024-01-11T10:52:17;39.35;;;19.90;;
59786;SDS011;45672;51.612;5.536;2024-01-11T10:54:48;42.22;;;20.08;;
59786;SDS011;45672;51.612;5.536;2024-01-11T10:57:15;39.25;;;20.88;;
59786;SDS011;45672;51.612;5.536;2024-01-11T10:59:41;36.03;;;19.70;;
59786;SDS011;45672;51.612;5.536;2024-01-11T11:02:08;38.85;;;21.33;;
59786;SDS011;45672;51.612;5.536;2024-01-11T11:04:38;43.00;;;21.02;;
59786;SDS011;45672;51.612;5.536;2024-01-11T11:07:05;43.08;;;22.15;;
59786;SDS011;45672;51.612;5.536;2024-01-11T11:09:32;36.33;;;21.25;;
59786;SDS011;45672;51.612;5.536;2024-01-11T11:12:00;35.63;;;19.75;;
59786;SDS011;45672;51.612;5.536;2024-01-11T11:14:25;35.30;;;20.38;;
59786;SDS011;45672;51.612;5.536;2024-01-11T11:16:51;41.90;;;20.20;;
59786;SDS011;45672;51.612;5.536;2024-01-11T11:19:19;31.63;;;16.55;;
59786;SDS011;45672;51.612;5.536;2024-01-11T11:21:45;38.58;;;21.17;;
59786;SDS011;45672;51.612;5.536;2024-01-11T11:24:16;37.75;;;20.92;;
59786;SDS011;45672;51.612;5.536;2024-01-11T11:26:45;38.17;;;18.90;;
59786;SDS011;45672;51.612;5.536;2024-01-11T11:29:10;35.30;;;19.05;;
59786;SDS011;45672;51.612;5.536;2024-01-11T11:31:36;37.03;;;21.30;;
59786;SDS011;45672;51.612;5.536;2024-01-11T11:34:12;41.35;;;17.27;;
59786;SDS011;45672;51.612;5.536;2024-01-11T11:36:39;36.13;;;20.85;;
59786;SDS011;45672;51.612;5.536;2024-01-11T11:39:06;38.28;;;19.80;;
59786;SDS011;45672;51.612;5.536;2024-01-11T11:41:36;38.80;;;19.88;;
59786;SDS011;45672;51.612;5.536;2024-01-11T11:44:03;36.05;;;20.23;;
59786;SDS011;45672;51.612;5.536;2024-01-11T11:46:30;29.40;;;16.38;;
59786;SDS011;45672;51.612;5.536;2024-01-11T11:48:56;36.70;;;20.20;;
59786;SDS011;45672;51.612;5.536;2024-01-11T11:51:23;36.85;;;20.52;;
59786;SDS011;45672;51.612;5.536;2024-01-11T11:53:49;37.13;;;19.90;;
59786;SDS011;45672;51.612;5.536;2024-01-11T11:56:17;43.50;;;21.85;;
59786;SDS011;45672;51.612;5.536;2024-01-11T11:58:45;26.13;;;15.38;;
59786;SDS011;45672;51.612;5.536;2024-01-11T12:01:11;42.25;;;23.20;;
59786;SDS011;45672;51.612;5.536;2024-01-11T12:03:38;30.60;;;16.13;;
59786;SDS011;45672;51.612;5.536;2024-01-11T12:06:13;42.67;;;20.95;;
59786;SDS011;45672;51.612;5.536;2024-01-11T12:08:41;45.35;;;21.70;;
59786;SDS011;45672;51.612;5.536;2024-01-11T12:11:07;42.15;;;21.88;;
59786;SDS011;45672;51.612;5.536;2024-01-11T12:13:32;41.15;;;21.60;;
59786;SDS011;45672;51.612;5.536;2024-01-11T12:15:58;37.83;;;19.05;;
59786;SDS011;45672;51.612;5.536;2024-01-11T12:18:23;46.00;;;22.25;;
59786;SDS011;45672;51.612;5.536;2024-01-11T12:20:49;32.83;;;17.63;;
59786;SDS011;45672;51.612;5.536;2024-01-11T12:23:18;36.03;;;19.67;;
59786;SDS011;45672;51.612;5.536;2024-01-11T12:25:43;44.22;;;22.85;;
59786;SDS011;45672;51.612;5.536;2024-01-11T12:28:09;36.17;;;19.55;;
59786;SDS011;45672;51.612;5.536;2024-01-11T12:30:35;36.15;;;21.10;;
59786;SDS011;45672;51.612;5.536;2024-01-11T12:33:00;39.83;;;21.92;;
59786;SDS011;45672;51.612;5.536;2024-01-11T12:35:27;38.53;;;20.77;;
59786;SDS011;45672;51.612;5.536;2024-01-11T12:37:58;39.67;;;19.70;;
59786;SDS011;45672;51.612;5.536;2024-01-11T12:40:24;28.75;;;15.93;;
59786;SDS011;45672;51.612;5.536;2024-01-11T12:42:52;30.60;;;16.83;;
59786;SDS011;45672;51.612;5.536;2024-01-11T12:45:18;37.17;;;20.55;;
59786;SDS011;45672;51.612;5.536;2024-01-11T12:47:44;34.22;;;16.63;;
59786;SDS011;45672;51.612;5.536;2024-01-11T12:50:09;34.95;;;19.77;;
59786;SDS011;45672;51.612;5.536;2024-01-11T12:52:37;36.05;;;20.38;;
59786;SDS011;45672;51.612;5.536;2024-01-11T12:55:03;36.67;;;20.38;;
59786;SDS011;45672;51.612;5.536;2024-01-11T12:57:29;41.25;;;20.75;;
59786;SDS011;45672;51.612;5.536;2024-01-11T12:59:54;37.63;;;20.02;;
59786;SDS011;45672;51.612;5.536;2024-01-11T13:02:35;40.03;;;19.48;;
59786;SDS011;45672;51.612;5.536;2024-01-11T13:05:01;34.60;;;18.63;;
59786;SDS011;45672;51.612;5.536;2024-01-11T13:07:27;31.80;;;17.25;;
59786;SDS011;45672;51.612;5.536;2024-01-11T13:09:53;28.92;;;16.02;;
59786;SDS011;45672;51.612;5.536;2024-01-11T13:12:18;28.50;;;14.10;;
59786;SDS011;45672;51.612;5.536;2024-01-11T13:14:45;23.33;;;13.77;;
59786;SDS011;45672;51.612;5.536;2024-01-11T13:17:12;23.55;;;12.38;;
59786;SDS011;45672;51.612;5.536;2024-01-11T13:19:37;12.65;;;8.05;;
59786;SDS011;45672;51.612;5.536;2024-01-11T13:22:03;14.07;;;7.57;;
59786;SDS011;45672;51.612;5.536;2024-01-11T13:24:28;13.13;;;7.13;;
59786;SDS011;45672;51.612;5.536;2024-01-11T13:26:54;15.80;;;8.65;;
59786;SDS011;45672;51.612;5.536;2024-01-11T13:29:20;16.02;;;7.63;;
59786;SDS011;45672;51.612;5.536;2024-01-11T13:31:45;14.63;;;7.25;;
59786;SDS011;45672;51.612;5.536;2024-01-11T13:34:10;18.27;;;8.45;;
59786;SDS011;45672;51.612;5.536;2024-01-11T13:36:36;14.73;;;8.40;;
59786;SDS011;45672;51.612;5.536;2024-01-11T13:39:02;12.43;;;7.00;;
59786;SDS011;45672;51.612;5.536;2024-01-11T13:41:28;15.18;;;7.57;;
59786;SDS011;45672;51.612;5.536;2024-01-11T13:43:53;16.73;;;8.75;;
59786;SDS011;45672;51.612;5.536;2024-01-11T13:46:19;18.45;;;9.02;;
59786;SDS011;45672;51.612;5.536;2024-01-11T13:48:45;16.73;;;9.13;;
59786;SDS011;45672;51.612;5.536;2024-01-11T13:51:10;16.77;;;8.98;;
59786;SDS011;45672;51.612;5.536;2024-01-11T13:53:38;14.85;;;7.57;;
59786;SDS011;45672;51.612;5.536;2024-01-11T13:56:03;16.38;;;9.00;;
59786;SDS011;45672;51.612;5.536;2024-01-11T13:58:29;18.77;;;8.90;;
59786;SDS011;45672;51.612;5.536;2024-01-11T14:00:54;15.93;;;8.50;;
59786;SDS011;45672;51.612;5.536;2024-01-11T14:03:20;18.02;;;8.95;;
59786;SDS011;45672;51.612;5.536;2024-01-11T14:05:45;14.90;;;7.60;;
59786;SDS011;45672;51.612;5.536;2024-01-11T14:08:10;16.52;;;8.98;;
59786;SDS011;45672;51.612;5.536;2024-01-11T14:10:36;16.48;;;8.75;;
59786;SDS011;45672;51.612;5.536;2024-01-11T14:13:02;18.77;;;8.82;;
59786;SDS011;45672;51.612;5.536;2024-01-11T14:15:28;18.05;;;8.50;;
59786;SDS011;45672;51.612;5.536;2024-01-11T14:17:54;16.33;;;9.18;;
59786;SDS011;45672;51.612;5.536;2024-01-11T14:20:19;20.30;;;9.27;;